Time;durP1;ratioP1;P1;durP2;ratioP2;P2;SDS_P1;SDS_P2;PMS_P1;PMS_P2;Temp;Humidity;BMP_temperature;BMP_pressure;BME280_temperature;BME280_humidity;BME280_pressure;Samples;Min_cycle;Max_cycle;Signal;HPM_P1;HPM_P2
2021/09/22 00:00:46;;;;;;;0.20;0.20;;;11.90;99.90;;;;;;5086780;28;20210;-81
2021/09/22 00:03:12;;;;;;;0.10;0.10;;;11.90;99.90;;;;;;5080826;28;20645;-81
2021/09/22 00:05:37;;;;;;;0.13;0.13;;;11.90;99.90;;;;;;5079642;28;20187;-82
2021/09/22 00:08:03;;;;;;;0.17;0.13;;;11.90;99.90;;;;;;5091028;28;20186;-82
2021/09/22 00:10:29;;;;;;;0.30;0.30;;;11.90;99.90;;;;;;5085344;28;20692;-82
2021/09/22 00:12:54;;;;;;;0.30;0.27;;;11.90;99.90;;;;;;5079500;28;20571;-82
2021/09/22 00:15:23;;;;;;;0.20;0.20;;;11.90;99.90;;;;;;5091157;28;20187;-82
2021/09/22 00:17:49;;;;;;;0.33;0.30;;;11.80;99.90;;;;;;5087677;28;20180;-82
2021/09/22 00:20:16;;;;;;;0.33;0.33;;;11.80;99.90;;;;;;5079181;28;20188;-82
2021/09/22 00:22:42;;;;;;;0.00;0.00;;;11.60;99.90;;;;;;5091470;28;20208;-82
2021/09/22 00:25:08;;;;;;;1.40;0.20;;;11.70;99.90;;;;;;5084417;28;20184;-82
2021/09/22 00:27:34;;;;;;;0.30;0.30;;;11.70;99.90;;;;;;5089893;28;20255;-82
2021/09/22 00:29:59;;;;;;;0.17;0.17;;;11.70;99.90;;;;;;5081576;28;20217;-82
2021/09/22 00:32:26;;;;;;;0.47;0.37;;;11.70;99.90;;;;;;5084969;28;20210;-82
2021/09/22 00:34:52;;;;;;;0.13;0.13;;;11.70;99.90;;;;;;5081417;28;20191;-82
2021/09/22 00:37:18;;;;;;;0.10;0.10;;;11.70;99.90;;;;;;5078344;28;20182;-82
2021/09/22 00:39:44;;;;;;;1.60;0.10;;;11.70;99.90;;;;;;5088390;28;20227;-82
2021/09/22 00:42:09;;;;;;;0.40;0.40;;;11.70;99.90;;;;;;5085310;28;20204;-81
2021/09/22 00:44:56;;;;;;;0.17;0.10;;;11.70;99.90;;;;;;5084028;28;20192;-82
2021/09/22 00:47:25;;;;;;;0.13;0.13;;;11.70;99.90;;;;;;5084933;28;20212;-82
2021/09/22 00:49:52;;;;;;;0.10;0.10;;;11.70;99.90;;;;;;5080420;28;20195;-82
2021/09/22 00:52:19;;;;;;;0.10;0.10;;;11.60;99.90;;;;;;5084545;28;20709;-82
2021/09/22 00:54:46;;;;;;;0.83;0.20;;;11.60;99.90;;;;;;5080728;28;20190;-82
2021/09/22 00:57:12;;;;;;;0.13;0.13;;;11.40;99.90;;;;;;5081184;28;20185;-82
2021/09/22 00:59:38;;;;;;;0.20;0.20;;;11.30;99.90;;;;;;5086244;28;20627;-82
2021/09/22 01:02:05;;;;;;;0.20;0.20;;;11.30;99.90;;;;;;5066883;28;20210;-82
2021/09/22 01:04:31;;;;;;;0.20;0.20;;;11.30;99.90;;;;;;5072107;28;20195;-82
2021/09/22 01:06:57;;;;;;;0.10;0.10;;;11.40;99.90;;;;;;5087158;28;20661;-82
2021/09/22 01:09:23;;;;;;;0.40;0.40;;;11.30;99.90;;;;;;5083863;28;20188;-82
2021/09/22 01:11:49;;;;;;;0.00;0.00;;;11.10;99.90;;;;;;5085595;28;20616;-82
2021/09/22 01:14:19;;;;;;;0.77;0.50;;;11.10;99.90;;;;;;5097963;28;20192;-82
2021/09/22 01:16:45;;;;;;;0.20;0.20;;;11.00;99.90;;;;;;5082999;28;20649;-81
2021/09/22 01:19:11;;;;;;;0.03;0.03;;;10.90;99.90;;;;;;5076692;28;20188;-82
2021/09/22 01:21:41;;;;;;;0.23;0.23;;;11.00;99.90;;;;;;5080984;28;20344;-82
2021/09/22 01:24:07;;;;;;;0.20;0.20;;;11.00;99.90;;;;;;5096798;28;20707;-82
2021/09/22 01:26:33;;;;;;;0.27;0.27;;;10.90;99.90;;;;;;5084679;28;20199;-82
2021/09/22 01:28:59;;;;;;;0.20;0.20;;;10.90;99.90;;;;;;5072022;28;20226;-81
2021/09/22 01:31:25;;;;;;;0.10;0.10;;;11.00;99.90;;;;;;5079269;28;20298;-82
2021/09/22 01:33:50;;;;;;;0.00;0.00;;;11.00;99.90;;;;;;5083996;28;20259;-82
2021/09/22 01:36:16;;;;;;;0.10;0.10;;;11.10;99.90;;;;;;5083605;28;20789;-82
2021/09/22 01:38:42;;;;;;;0.73;0.40;;;11.20;99.90;;;;;;5093485;28;20176;-82
2021/09/22 01:41:09;;;;;;;0.20;0.20;;;11.20;99.90;;;;;;5087193;28;20201;-82
2021/09/22 01:43:37;;;;;;;0.20;0.20;;;11.30;99.90;;;;;;5092508;28;20245;-82
2021/09/22 01:46:04;;;;;;;0.40;0.40;;;11.10;99.90;;;;;;5086211;28;20187;-81
2021/09/22 01:48:30;;;;;;;0.30;0.30;;;11.10;99.90;;;;;;5083369;28;20189;-81
2021/09/22 01:50:58;;;;;;;0.50;0.50;;;11.10;99.90;;;;;;5089163;28;20232;-82
2021/09/22 01:53:24;;;;;;;0.47;0.27;;;11.10;99.90;;;;;;5078990;28;20191;-82
2021/09/22 01:55:52;;;;;;;0.60;0.30;;;11.10;99.90;;;;;;5088188;28;20267;-82
2021/09/22 01:58:18;;;;;;;0.03;0.03;;;11.10;99.90;;;;;;5078789;28;20189;-81
2021/09/22 02:00:44;;;;;;;0.20;0.20;;;11.10;99.90;;;;;;5090792;28;20172;-82
2021/09/22 02:03:10;;;;;;;0.10;0.10;;;11.10;99.90;;;;;;5082838;28;20255;-82
2021/09/22 02:05:35;;;;;;;0.27;0.27;;;11.10;99.90;;;;;;5072554;28;20259;-82
2021/09/22 02:08:01;;;;;;;0.23;0.10;;;11.10;99.90;;;;;;5075443;28;20188;-82
2021/09/22 02:10:27;;;;;;;0.10;0.10;;;11.10;99.90;;;;;;5085750;28;20666;-82
2021/09/22 02:12:53;;;;;;;0.10;0.10;;;11.10;99.90;;;;;;5093617;28;20292;-81
2021/09/22 02:15:19;;;;;;;0.10;0.10;;;11.10;99.90;;;;;;5074627;28;20634;-82
2021/09/22 02:17:44;;;;;;;0.30;0.20;;;11.10;99.90;;;;;;5094589;28;20549;-82
2021/09/22 02:20:11;;;;;;;0.30;0.30;;;11.10;99.90;;;;;;5089019;28;20592;-82
2021/09/22 02:22:37;;;;;;;0.10;0.10;;;11.10;99.90;;;;;;5092404;28;20265;-81
2021/09/22 02:25:05;;;;;;;0.30;0.30;;;11.10;99.90;;;;;;5080147;28;20188;-82
2021/09/22 02:27:31;;;;;;;0.20;0.20;;;11.10;99.90;;;;;;5085023;28;20208;-81
2021/09/22 02:29:56;;;;;;;0.40;0.23;;;11.10;99.90;;;;;;5085644;28;20667;-81
2021/09/22 02:32:22;;;;;;;0.40;0.40;;;11.00;99.90;;;;;;5072385;28;20218;-81
2021/09/22 02:34:48;;;;;;;0.13;0.13;;;11.00;99.90;;;;;;5062868;28;20668;-81
2021/09/22 02:37:13;;;;;;;0.17;0.17;;;11.10;99.90;;;;;;5071756;28;20268;-82
2021/09/22 02:39:39;;;;;;;0.07;0.07;;;11.10;99.90;;;;;;5082053;28;20230;-81
2021/09/22 02:42:05;;;;;;;0.67;0.67;;;11.00;99.90;;;;;;5085133;28;20199;-81
2021/09/22 02:44:30;;;;;;;0.10;0.10;;;11.00;99.90;;;;;;5082306;28;20184;-81
2021/09/22 02:46:56;;;;;;;0.43;0.43;;;10.90;99.90;;;;;;5085834;28;20261;-81
2021/09/22 02:49:22;;;;;;;0.20;0.20;;;10.90;99.90;;;;;;5088345;28;20176;-82
2021/09/22 02:51:48;;;;;;;0.23;0.23;;;10.90;99.90;;;;;;5102955;28;20223;-81
2021/09/22 02:54:14;;;;;;;0.10;0.10;;;10.90;99.90;;;;;;5089314;28;20717;-81
2021/09/22 02:56:40;;;;;;;0.30;0.30;;;10.90;99.90;;;;;;5087460;28;20181;-81
2021/09/22 02:59:05;;;;;;;0.60;0.20;;;10.90;99.90;;;;;;5085276;28;20183;-81
2021/09/22 03:01:31;;;;;;;0.00;0.00;;;10.90;99.90;;;;;;5086557;28;20211;-81
2021/09/22 03:03:57;;;;;;;0.20;0.20;;;10.80;99.90;;;;;;5080438;28;20199;-81
2021/09/22 03:06:24;;;;;;;0.20;0.13;;;10.50;99.90;;;;;;5067461;28;20184;-81
2021/09/22 03:08:50;;;;;;;0.10;0.10;;;10.50;99.90;;;;;;5079730;28;20211;-82
2021/09/22 03:11:15;;;;;;;0.53;0.20;;;10.50;99.90;;;;;;5083175;28;20287;-82
2021/09/22 03:13:41;;;;;;;0.43;0.30;;;10.50;99.90;;;;;;5087690;28;20180;-81
2021/09/22 03:16:08;;;;;;;0.10;0.10;;;10.60;99.90;;;;;;5089722;28;20550;-81
2021/09/22 03:18:34;;;;;;;0.40;0.30;;;10.60;99.90;;;;;;5092325;28;20202;-81
2021/09/22 03:21:00;;;;;;;0.30;0.30;;;10.50;99.90;;;;;;5091199;28;20677;-81
2021/09/22 03:23:26;;;;;;;0.20;0.20;;;10.50;99.90;;;;;;5078806;28;20214;-81
2021/09/22 03:25:52;;;;;;;0.70;0.40;;;10.50;99.90;;;;;;5092499;28;20183;-81
2021/09/22 03:28:18;;;;;;;0.37;0.37;;;10.50;99.90;;;;;;5088670;28;20203;-81
2021/09/22 03:30:44;;;;;;;0.23;0.23;;;10.50;99.90;;;;;;5084334;28;20187;-82
2021/09/22 03:33:09;;;;;;;0.10;0.10;;;10.50;99.90;;;;;;5083142;28;20677;-82
2021/09/22 03:35:35;;;;;;;0.20;0.20;;;10.50;99.90;;;;;;5068375;28;20181;-81
2021/09/22 03:38:02;;;;;;;0.30;0.17;;;10.50;99.90;;;;;;5088308;28;20349;-81
2021/09/22 03:40:28;;;;;;;0.77;0.27;;;10.50;99.90;;;;;;5085678;28;20645;-81
2021/09/22 03:42:55;;;;;;;0.63;0.23;;;10.50;99.90;;;;;;5084150;28;20188;-82
2021/09/22 03:45:20;;;;;;;0.10;0.10;;;10.60;99.90;;;;;;5075722;28;20644;-81
2021/09/22 03:47:46;;;;;;;0.10;0.10;;;10.50;99.90;;;;;;5085483;28;20262;-82
2021/09/22 03:50:12;;;;;;;0.20;0.20;;;10.50;99.90;;;;;;5099089;28;20656;-82
2021/09/22 03:52:37;;;;;;;0.20;0.20;;;10.50;99.90;;;;;;5086193;28;20295;-81
2021/09/22 03:55:04;;;;;;;0.10;0.10;;;10.50;99.90;;;;;;5083700;28;20180;-81
2021/09/22 03:57:30;;;;;;;0.30;0.30;;;10.50;99.90;;;;;;5074604;28;20714;-82
2021/09/22 03:59:55;;;;;;;0.10;0.10;;;10.50;99.90;;;;;;5088250;28;20175;-81
2021/09/22 04:02:21;;;;;;;0.20;0.20;;;10.30;99.90;;;;;;5084646;28;20303;-81
2021/09/22 04:04:47;;;;;;;0.40;0.40;;;10.20;99.90;;;;;;5090182;28;20182;-82
2021/09/22 04:07:13;;;;;;;0.10;0.10;;;9.90;99.90;;;;;;5081902;28;20527;-81
2021/09/22 04:09:38;;;;;;;0.10;0.10;;;9.90;99.90;;;;;;5091475;28;20191;-82
2021/09/22 04:12:04;;;;;;;0.20;0.20;;;9.90;99.90;;;;;;5081443;28;20235;-81
2021/09/22 04:14:30;;;;;;;0.83;0.20;;;10.00;99.90;;;;;;5065418;28;20196;-81
2021/09/22 04:16:55;;;;;;;0.47;0.37;;;10.10;99.90;;;;;;5086467;28;20215;-81
2021/09/22 04:19:21;;;;;;;0.30;0.30;;;10.10;99.90;;;;;;5084806;28;20254;-81
2021/09/22 04:21:47;;;;;;;0.10;0.10;;;10.10;99.90;;;;;;5084929;28;20210;-81
2021/09/22 04:24:12;;;;;;;0.20;0.20;;;10.10;99.90;;;;;;5078754;28;20247;-81
2021/09/22 04:26:39;;;;;;;0.20;0.20;;;10.20;99.90;;;;;;5078190;28;20198;-81
2021/09/22 04:29:05;;;;;;;0.10;0.10;;;10.20;99.90;;;;;;5084849;28;20182;-81
2021/09/22 04:31:31;;;;;;;1.43;0.50;;;10.20;99.90;;;;;;5086235;28;20791;-81
2021/09/22 04:33:57;;;;;;;0.20;0.20;;;10.20;99.90;;;;;;5084401;28;20176;-81
2021/09/22 04:36:22;;;;;;;0.20;0.20;;;10.10;99.90;;;;;;5077146;28;20561;-81
2021/09/22 04:38:48;;;;;;;0.30;0.27;;;10.10;99.90;;;;;;5071006;28;20195;-82
2021/09/22 04:41:14;;;;;;;0.20;0.20;;;10.10;99.90;;;;;;5086862;28;20214;-81
2021/09/22 04:43:40;;;;;;;2.00;0.50;;;10.10;99.90;;;;;;5084755;28;20222;-81
2021/09/22 04:46:06;;;;;;;0.33;0.33;;;9.90;99.90;;;;;;5086907;28;20179;-81
2021/09/22 04:48:32;;;;;;;0.20;0.20;;;10.00;99.90;;;;;;5096657;28;20193;-81
2021/09/22 04:50:58;;;;;;;0.20;0.20;;;9.90;99.90;;;;;;5082523;28;20290;-82
2021/09/22 04:53:23;;;;;;;0.50;0.50;;;10.00;99.90;;;;;;5087795;28;20271;-81
2021/09/22 04:55:49;;;;;;;0.27;0.27;;;9.90;99.90;;;;;;5078081;28;20185;-80
2021/09/22 04:58:15;;;;;;;0.57;0.53;;;9.90;99.90;;;;;;5085047;28;20245;-81
2021/09/22 05:00:40;;;;;;;0.10;0.10;;;9.90;99.90;;;;;;5088776;28;20345;-81
2021/09/22 05:03:06;;;;;;;0.30;0.30;;;9.90;99.90;;;;;;5070895;28;20920;-82
2021/09/22 05:05:32;;;;;;;0.10;0.10;;;10.00;99.90;;;;;;5086904;28;20233;-81
2021/09/22 05:07:59;;;;;;;0.13;0.10;;;10.00;99.90;;;;;;5089277;28;20637;-82
2021/09/22 05:10:28;;;;;;;1.07;0.40;;;9.90;99.90;;;;;;5089920;28;20184;-81
2021/09/22 05:12:54;;;;;;;0.00;0.00;;;10.00;99.90;;;;;;5078076;28;20208;-81
2021/09/22 05:15:19;;;;;;;0.37;0.37;;;10.10;99.90;;;;;;5077751;28;20270;-82
2021/09/22 05:17:45;;;;;;;0.10;0.10;;;10.00;99.90;;;;;;5081603;28;20184;-82
2021/09/22 05:20:11;;;;;;;0.30;0.30;;;10.10;99.90;;;;;;5091987;28;20199;-82
2021/09/22 05:22:37;;;;;;;0.23;0.17;;;10.00;99.90;;;;;;5085817;28;20205;-82
2021/09/22 05:25:04;;;;;;;0.23;0.23;;;10.00;99.90;;;;;;5079832;28;20605;-82
2021/09/22 05:27:30;;;;;;;0.50;0.40;;;9.80;99.90;;;;;;5077943;28;20240;-82
2021/09/22 05:29:56;;;;;;;0.17;0.17;;;9.80;99.90;;;;;;5090753;28;20863;-80
2021/09/22 05:32:22;;;;;;;0.23;0.23;;;9.80;99.90;;;;;;5089572;28;20208;-80
2021/09/22 05:34:47;;;;;;;0.10;0.10;;;9.90;99.90;;;;;;5083119;28;20227;-80
2021/09/22 05:37:13;;;;;;;0.83;0.47;;;10.00;99.90;;;;;;5093475;28;20199;-80
2021/09/22 05:39:39;;;;;;;0.93;0.90;;;10.00;99.90;;;;;;5085913;28;20184;-80
2021/09/22 05:42:05;;;;;;;0.10;0.10;;;10.00;99.90;;;;;;5087141;28;20564;-80
2021/09/22 05:44:32;;;;;;;0.10;0.10;;;10.10;99.90;;;;;;5085474;28;20214;-80
2021/09/22 05:46:57;;;;;;;0.20;0.20;;;10.20;99.90;;;;;;5076439;28;20180;-80
2021/09/22 05:49:23;;;;;;;0.20;0.20;;;10.30;99.90;;;;;;5080715;28;20191;-82
2021/09/22 05:51:49;;;;;;;0.20;0.20;;;10.30;99.90;;;;;;5090724;28;20690;-82
2021/09/22 05:54:15;;;;;;;0.20;0.20;;;10.30;99.90;;;;;;5082379;28;20185;-82
2021/09/22 05:56:42;;;;;;;0.23;0.23;;;10.40;99.90;;;;;;5084211;28;20195;-82
2021/09/22 05:59:08;;;;;;;0.70;0.40;;;10.50;99.90;;;;;;5089087;28;20176;-82
2021/09/22 06:01:34;;;;;;;0.40;0.40;;;10.50;99.90;;;;;;5077578;28;20216;-81
2021/09/22 06:04:00;;;;;;;0.33;0.33;;;10.50;99.90;;;;;;5092651;28;20207;-81
2021/09/22 06:06:26;;;;;;;0.10;0.10;;;10.50;99.90;;;;;;5073639;28;20178;-81
2021/09/22 06:08:51;;;;;;;0.27;0.27;;;10.60;99.90;;;;;;5078921;28;21069;-81
2021/09/22 06:11:17;;;;;;;0.27;0.27;;;10.70;99.90;;;;;;5079964;28;20216;-81
2021/09/22 06:13:43;;;;;;;0.20;0.20;;;10.80;99.90;;;;;;5091362;28;20259;-81
2021/09/22 06:16:08;;;;;;;0.37;0.33;;;10.90;99.90;;;;;;5088659;28;20179;-81
2021/09/22 06:18:35;;;;;;;0.10;0.10;;;10.90;99.90;;;;;;5087425;28;20180;-81
2021/09/22 06:21:01;;;;;;;0.20;0.20;;;10.90;99.90;;;;;;5089274;28;20288;-81
2021/09/22 06:23:27;;;;;;;0.20;0.20;;;11.00;99.90;;;;;;5085595;28;20635;-81
2021/09/22 06:25:53;;;;;;;0.20;0.20;;;11.10;99.90;;;;;;5086662;28;20184;-81
2021/09/22 06:28:18;;;;;;;0.67;0.50;;;11.30;99.90;;;;;;5094736;28;20205;-82
2021/09/22 06:30:44;;;;;;;0.33;0.33;;;11.40;99.90;;;;;;5093795;28;20173;-81
2021/09/22 06:33:10;;;;;;;0.40;0.20;;;11.70;99.90;;;;;;5082057;28;20579;-82
2021/09/22 06:35:35;;;;;;;0.30;0.30;;;11.80;99.90;;;;;;5093376;28;20192;-82
2021/09/22 06:38:01;;;;;;;0.73;0.43;;;12.00;99.90;;;;;;5080085;28;20265;-82
2021/09/22 06:40:27;;;;;;;0.47;0.47;;;12.00;99.90;;;;;;5081675;28;20182;-82
2021/09/22 06:42:53;;;;;;;0.67;0.33;;;12.20;99.90;;;;;;5078684;28;20268;-82
2021/09/22 06:45:21;;;;;;;0.97;0.50;;;12.20;99.90;;;;;;5092081;28;20190;-82
2021/09/22 06:47:50;;;;;;;0.30;0.30;;;12.30;99.90;;;;;;5087427;28;20211;-82
2021/09/22 06:50:16;;;;;;;0.60;0.20;;;12.40;99.90;;;;;;5091017;28;20187;-82
2021/09/22 06:52:42;;;;;;;0.97;0.47;;;12.40;99.90;;;;;;5078663;28;20295;-82
2021/09/22 06:55:08;;;;;;;1.77;0.97;;;12.70;99.90;;;;;;5080063;28;20192;-82
2021/09/22 06:57:33;;;;;;;0.27;0.27;;;12.80;99.90;;;;;;5089480;28;20206;-82
2021/09/22 07:00:00;;;;;;;1.10;0.47;;;13.00;99.90;;;;;;5090033;28;20212;-82
2021/09/22 07:02:26;;;;;;;0.20;0.20;;;13.20;99.90;;;;;;5082509;28;20211;-82
2021/09/22 07:04:51;;;;;;;0.43;0.43;;;13.30;99.90;;;;;;5072080;28;20201;-83
2021/09/22 07:07:17;;;;;;;0.10;0.10;;;13.40;99.90;;;;;;5077728;28;20712;-83
2021/09/22 07:09:42;;;;;;;0.40;0.33;;;13.50;99.90;;;;;;5095983;28;20214;-83
2021/09/22 07:12:08;;;;;;;0.53;0.53;;;13.50;99.90;;;;;;5075092;28;20220;-83
2021/09/22 07:14:34;;;;;;;0.30;0.23;;;13.50;99.90;;;;;;5092086;28;20210;-83
2021/09/22 07:17:00;;;;;;;0.50;0.50;;;13.60;99.90;;;;;;5089433;28;20231;-82
2021/09/22 07:19:25;;;;;;;0.20;0.20;;;13.70;99.90;;;;;;5078818;28;20180;-83
2021/09/22 07:21:51;;;;;;;0.97;0.60;;;13.80;99.90;;;;;;5075788;28;20579;-83
2021/09/22 07:24:17;;;;;;;1.00;0.23;;;13.70;99.90;;;;;;5085520;28;20188;-82
2021/09/22 07:26:42;;;;;;;1.00;0.70;;;13.80;99.90;;;;;;5083235;28;20222;-82
2021/09/22 07:29:08;;;;;;;0.43;0.43;;;13.70;99.90;;;;;;5086375;28;20183;-82
2021/09/22 07:31:35;;;;;;;0.50;0.37;;;13.90;99.90;;;;;;5086582;28;20266;-82
2021/09/22 07:34:02;;;;;;;0.40;0.30;;;14.00;99.90;;;;;;5086511;28;20184;-82
2021/09/22 07:36:29;;;;;;;0.40;0.40;;;14.10;99.90;;;;;;5088721;28;20642;-82
2021/09/22 07:38:55;;;;;;;1.10;0.40;;;14.20;99.90;;;;;;5092644;28;20176;-82
2021/09/22 07:41:21;;;;;;;3.10;0.53;;;14.30;99.90;;;;;;5083209;28;20296;-81
2021/09/22 07:43:46;;;;;;;0.83;0.40;;;14.30;99.90;;;;;;5091098;28;20602;-82
2021/09/22 07:46:12;;;;;;;0.50;0.50;;;14.20;99.90;;;;;;5089318;28;20609;-81
2021/09/22 07:48:37;;;;;;;0.60;0.40;;;14.10;99.90;;;;;;5089215;28;20188;-81
2021/09/22 07:51:03;;;;;;;0.63;0.40;;;14.10;99.90;;;;;;5084246;28;20344;-82
2021/09/22 07:53:29;;;;;;;0.40;0.40;;;14.00;99.90;;;;;;5081282;28;20282;-82
2021/09/22 07:55:55;;;;;;;0.60;0.60;;;14.00;99.90;;;;;;5089778;28;20179;-82
2021/09/22 07:58:21;;;;;;;0.30;0.30;;;14.00;99.90;;;;;;5068070;28;20187;-82
2021/09/22 08:00:46;;;;;;;0.40;0.40;;;14.10;99.90;;;;;;5084632;28;20209;-81
2021/09/22 08:03:12;;;;;;;0.90;0.80;;;14.20;99.90;;;;;;5083858;28;20217;-82
2021/09/22 08:05:40;;;;;;;1.17;0.70;;;14.40;99.90;;;;;;5098440;28;20183;-82
2021/09/22 08:08:07;;;;;;;3.87;0.53;;;14.50;99.90;;;;;;5083834;28;20212;-82
2021/09/22 08:10:37;;;;;;;1.13;0.50;;;14.50;99.90;;;;;;5085127;28;20185;-81
2021/09/22 08:13:03;;;;;;;0.43;0.43;;;14.50;99.90;;;;;;5082633;28;20201;-83
2021/09/22 08:15:28;;;;;;;0.30;0.30;;;14.50;99.90;;;;;;5088411;28;20232;-82
2021/09/22 08:17:55;;;;;;;0.10;0.10;;;14.70;99.90;;;;;;5095983;28;20173;-82
2021/09/22 08:20:20;;;;;;;1.00;0.93;;;15.00;99.90;;;;;;5096497;28;20205;-82
2021/09/22 08:22:48;;;;;;;0.60;0.60;;;15.30;99.90;;;;;;5090221;28;20693;-82
2021/09/22 08:25:14;;;;;;;0.73;0.73;;;15.40;99.90;;;;;;5081785;28;20206;-80
2021/09/22 08:27:40;;;;;;;1.87;0.37;;;15.60;99.90;;;;;;5091429;28;20249;-79
2021/09/22 08:30:06;;;;;;;1.00;0.40;;;15.90;99.90;;;;;;5095097;28;20173;-79
2021/09/22 08:32:33;;;;;;;0.10;0.10;;;16.00;99.90;;;;;;5088754;28;20201;-79
2021/09/22 08:34:59;;;;;;;1.33;0.77;;;16.10;99.90;;;;;;5083542;28;20226;-79
2021/09/22 08:37:24;;;;;;;0.20;0.20;;;16.40;99.90;;;;;;5087220;28;20182;-80
2021/09/22 08:39:51;;;;;;;0.20;0.20;;;16.70;99.90;;;;;;5085422;28;20185;-79
2021/09/22 08:42:17;;;;;;;0.20;0.20;;;17.10;99.90;;;;;;5085648;28;20671;-80
2021/09/22 08:44:43;;;;;;;0.40;0.40;;;17.20;99.90;;;;;;5085181;28;20195;-82
2021/09/22 08:47:09;;;;;;;0.63;0.27;;;17.40;99.90;;;;;;5085644;28;20270;-82
2021/09/22 08:49:36;;;;;;;0.20;0.20;;;17.80;99.90;;;;;;5086589;28;20208;-82
2021/09/22 08:52:02;;;;;;;0.30;0.30;;;18.10;99.90;;;;;;5090403;28;20227;-83
2021/09/22 08:54:29;;;;;;;0.63;0.57;;;18.10;99.90;;;;;;5083971;28;20184;-82
2021/09/22 08:56:56;;;;;;;0.30;0.30;;;18.30;99.90;;;;;;5077362;28;20180;-82
2021/09/22 08:59:22;;;;;;;1.33;0.40;;;18.30;99.90;;;;;;5084303;28;20177;-83
2021/09/22 09:02:08;;;;;;;0.50;0.50;;;18.30;99.90;;;;;;5087535;28;20214;-83
2021/09/22 09:04:34;;;;;;;0.30;0.30;;;18.70;99.90;;;;;;5058564;28;20262;-81
2021/09/22 09:06:59;;;;;;;0.30;0.30;;;19.00;99.90;;;;;;5074504;28;20620;-82
2021/09/22 09:09:40;;;;;;;0.33;0.27;;;19.30;99.90;;;;;;5079625;28;20189;-82
2021/09/22 09:12:21;;;;;;;0.40;0.40;;;19.30;99.90;;;;;;5066542;28;20647;-81
2021/09/22 09:14:52;;;;;;;0.40;0.40;;;19.30;99.90;;;;;;5067361;28;20265;-82
2021/09/22 09:17:45;;;;;;;0.57;0.53;;;19.20;99.90;;;;;;5073182;28;20174;-82
2021/09/22 09:20:15;;;;;;;0.30;0.30;;;19.30;99.90;;;;;;5084044;28;20197;-82
2021/09/22 09:22:41;;;;;;;0.23;0.13;;;19.50;99.90;;;;;;5071003;28;20210;-82
2021/09/22 09:25:07;;;;;;;0.93;0.60;;;19.60;99.90;;;;;;5075471;28;20184;-82
2021/09/22 09:27:36;;;;;;;0.70;0.70;;;19.60;99.90;;;;;;5066297;28;20240;-81
2021/09/22 09:30:23;;;;;;;0.27;0.27;;;19.70;99.90;;;;;;5080002;28;20183;-81
2021/09/22 09:32:49;;;;;;;0.77;0.43;;;19.80;99.90;;;;;;5079957;28;20219;-82
2021/09/22 09:35:24;;;;;;;3.10;0.87;;;19.20;99.90;;;;;;5088242;28;20181;-82
2021/09/22 09:37:55;;;;;;;6.67;1.03;;;19.10;99.90;;;;;;5070941;28;20232;-82
2021/09/22 09:40:31;;;;;;;0.70;0.70;;;18.50;99.90;;;;;;5081651;28;20207;-82
2021/09/22 09:43:02;;;;;;;0.40;0.40;;;18.70;99.90;;;;;;5088059;28;20184;-82
2021/09/22 09:45:37;;;;;;;2.40;1.00;;;18.90;99.90;;;;;;5079671;28;20202;-81
2021/09/22 09:48:18;;;;;;;0.43;0.43;;;19.30;99.90;;;;;;5079452;28;20536;-82
2021/09/22 09:50:46;;;;;;;1.30;0.47;;;19.60;99.90;;;;;;5084874;28;20184;-82
2021/09/22 09:53:26;;;;;;;0.60;0.60;;;19.60;99.90;;;;;;5086739;28;20279;-81
2021/09/22 09:55:52;;;;;;;0.57;0.37;;;19.40;99.90;;;;;;5084892;28;20208;-82
2021/09/22 09:58:21;;;;;;;0.53;0.53;;;19.60;99.90;;;;;;5088269;28;20177;-82
2021/09/22 10:00:50;;;;;;;0.33;0.33;;;19.80;99.90;;;;;;5068183;28;20267;-82
2021/09/22 10:03:20;;;;;;;3.13;1.10;;;20.10;99.90;;;;;;5080787;28;20185;-82
2021/09/22 10:05:47;;;;;;;1.00;0.80;;;20.30;99.90;;;;;;5074144;28;20177;-81
2021/09/22 10:08:14;;;;;;;0.60;0.60;;;19.80;99.90;;;;;;5086849;28;20938;-81
2021/09/22 10:10:46;;;;;;;0.30;0.30;;;19.90;99.90;;;;;;5071638;28;20185;-81
2021/09/22 10:13:13;;;;;;;2.90;1.43;;;20.10;99.90;;;;;;5079039;28;20710;-81
2021/09/22 10:15:41;;;;;;;0.17;0.17;;;20.30;99.90;;;;;;5079123;28;20179;-82
2021/09/22 10:18:08;;;;;;;0.43;0.40;;;20.40;99.90;;;;;;5072004;28;20173;-81
2021/09/22 10:20:39;;;;;;;2.27;0.80;;;20.50;99.90;;;;;;5082132;28;20201;-82
2021/09/22 10:23:07;;;;;;;0.57;0.57;;;20.10;99.90;;;;;;5085513;28;21856;-82
2021/09/22 10:25:33;;;;;;;0.93;0.60;;;20.30;99.90;;;;;;5067494;28;20181;-81
2021/09/22 10:27:59;;;;;;;0.50;0.50;;;20.30;99.90;;;;;;5072653;28;20241;-81
2021/09/22 10:30:38;;;;;;;1.00;1.00;;;20.50;99.90;;;;;;5080502;28;20231;-82
2021/09/22 10:33:04;;;;;;;1.57;0.60;;;20.10;99.90;;;;;;5078751;28;20189;-82
2021/09/22 10:35:36;;;;;;;1.77;0.50;;;19.00;99.90;;;;;;5076444;28;20199;-82
2021/09/22 10:38:20;;;;;;;0.30;0.30;;;19.30;99.90;;;;;;5097790;28;20245;-82
2021/09/22 10:40:51;;;;;;;3.80;0.60;;;19.60;99.90;;;;;;5068858;28;20728;-82
2021/09/22 10:43:16;;;;;;;0.40;0.40;;;19.90;99.90;;;;;;5068757;28;20189;-82
2021/09/22 10:45:43;;;;;;;1.33;1.23;;;20.30;99.90;;;;;;5070190;28;20672;-83
2021/09/22 10:48:20;;;;;;;0.50;0.40;;;20.10;99.90;;;;;;5066476;28;20225;-83
2021/09/22 10:50:52;;;;;;;0.50;0.50;;;20.50;99.90;;;;;;5067935;28;20185;-82
2021/09/22 10:53:33;;;;;;;1.00;0.90;;;20.90;99.90;;;;;;5084140;28;20569;-82
2021/09/22 10:56:04;;;;;;;1.63;0.60;;;21.10;99.90;;;;;;5071361;28;20184;-82
2021/09/22 10:58:59;;;;;;;0.87;0.60;;;21.10;99.90;;;;;;5073557;28;20174;-82
2021/09/22 11:01:34;;;;;;;0.70;0.53;;;21.20;99.90;;;;;;5081845;28;20215;-82
2021/09/22 11:04:01;;;;;;;0.43;0.43;;;21.40;99.90;;;;;;5069831;28;20184;-82
2021/09/22 11:06:48;;;;;;;0.47;0.47;;;21.50;99.90;;;;;;5096276;28;20204;-83
2021/09/22 11:09:13;;;;;;;0.30;0.30;;;21.40;99.90;;;;;;5075912;28;20197;-82
2021/09/22 11:11:54;;;;;;;0.43;0.43;;;21.10;99.90;;;;;;5070535;28;20213;-82
2021/09/22 11:14:47;;;;;;;1.17;0.67;;;20.70;99.90;;;;;;5078438;28;20184;-82
2021/09/22 11:17:24;;;;;;;0.60;0.60;;;20.70;99.90;;;;;;5065707;28;20203;-82
2021/09/22 11:19:59;;;;;;;0.70;0.70;;;20.30;99.90;;;;;;5078810;28;20193;-82
2021/09/22 11:22:26;;;;;;;0.73;0.73;;;19.60;99.90;;;;;;5073019;28;20283;-82
2021/09/22 11:24:54;;;;;;;0.30;0.30;;;19.10;99.90;;;;;;5068333;28;20532;-82
2021/09/22 11:27:22;;;;;;;0.50;0.50;;;19.50;99.90;;;;;;5090760;28;20206;-82
2021/09/22 11:29:50;;;;;;;0.43;0.43;;;20.00;99.90;;;;;;5067991;28;20182;-82
2021/09/22 11:32:31;;;;;;;1.23;1.20;;;20.20;99.90;;;;;;5085465;28;20576;-82
2021/09/22 11:35:08;;;;;;;0.33;0.33;;;20.50;99.90;;;;;;5079069;28;20265;-82
2021/09/22 11:37:43;;;;;;;2.00;0.83;;;20.60;99.90;;;;;;5084934;28;20490;-82
2021/09/22 11:40:18;;;;;;;0.70;0.70;;;20.70;99.90;;;;;;5074337;28;20653;-82
2021/09/22 11:43:11;;;;;;;0.63;0.63;;;20.90;99.90;;;;;;5091409;28;20242;-82
2021/09/22 11:45:46;;;;;;;0.77;0.60;;;21.00;99.90;;;;;;5077245;28;20241;-82
2021/09/22 11:48:14;;;;;;;2.60;1.03;;;20.20;99.90;;;;;;5082265;28;20668;-82
2021/09/22 11:50:42;;;;;;;0.57;0.57;;;19.30;99.90;;;;;;5086984;28;20176;-82
2021/09/22 11:53:14;;;;;;;0.53;0.30;;;19.90;99.90;;;;;;5082114;28;20771;-82
2021/09/22 11:55:41;;;;;;;0.30;0.30;;;20.60;99.90;;;;;;5068441;28;20181;-83
2021/09/22 11:58:09;;;;;;;0.57;0.57;;;21.00;99.90;;;;;;5087834;28;20177;-82
2021/09/22 12:00:35;;;;;;;0.23;0.23;;;21.30;99.90;;;;;;5079760;28;20177;-83
2021/09/22 12:03:10;;;;;;;0.60;0.60;;;21.40;99.90;;;;;;5095417;28;20548;-82
2021/09/22 12:05:36;;;;;;;1.37;0.80;;;21.70;99.90;;;;;;5082349;28;20181;-82
2021/09/22 12:08:03;;;;;;;1.00;0.53;;;21.60;99.90;;;;;;5096482;28;20184;-82
2021/09/22 12:10:28;;;;;;;1.00;1.00;;;21.80;99.90;;;;;;5072833;28;20220;-82
2021/09/22 12:13:05;;;;;;;0.67;0.43;;;21.90;99.90;;;;;;5062971;28;20819;-82
2021/09/22 12:15:33;;;;;;;1.27;1.00;;;22.00;99.90;;;;;;5087264;28;20176;-82
2021/09/22 12:17:59;;;;;;;0.90;0.80;;;22.10;99.90;;;;;;5096076;28;20177;-82
2021/09/22 12:20:27;;;;;;;1.20;0.60;;;21.80;99.90;;;;;;5082054;28;20184;-83
2021/09/22 12:23:27;;;;;;;0.50;0.50;;;21.70;99.90;;;;;;5077327;28;20209;-83
2021/09/22 12:26:09;;;;;;;0.30;0.30;;;21.80;99.90;;;;;;5077941;28;20188;-83
2021/09/22 12:28:36;;;;;;;0.93;0.53;;;21.70;99.90;;;;;;5088684;28;20192;-82
2021/09/22 12:31:12;;;;;;;0.83;0.67;;;21.80;99.90;;;;;;5086879;28;20685;-82
2021/09/22 12:33:38;;;;;;;1.53;0.83;;;21.80;99.90;;;;;;5080638;28;20176;-83
2021/09/22 12:36:13;;;;;;;1.33;1.00;;;21.70;99.90;;;;;;5101689;28;20188;-82
2021/09/22 12:38:48;;;;;;;0.20;0.20;;;21.60;99.90;;;;;;5083214;28;20174;-83
2021/09/22 12:41:14;;;;;;;0.43;0.43;;;21.40;99.90;;;;;;5079463;28;20203;-82
2021/09/22 12:43:41;;;;;;;0.50;0.50;;;21.40;99.90;;;;;;5083811;28;20226;-83
2021/09/22 12:46:11;;;;;;;0.60;0.60;;;21.50;99.90;;;;;;5075660;28;20305;-82
2021/09/22 12:48:37;;;;;;;0.70;0.70;;;21.50;99.90;;;;;;5075092;28;20177;-84
2021/09/22 12:51:13;;;;;;;0.30;0.30;;;21.40;99.90;;;;;;5067531;28;20214;-83